METAR Data
IDs: Format: Raw Decoded Include TAF

Data at: 0803 UTC 18 Sep 2021

LFLY 180800Z AUTO 35004KT 310V020 9999 OVC052 17/14 Q1015 NOSIG